createdAt,value
2023-01-30T00:04:44.302Z,13.41
2023-01-30T00:09:47.468Z,13.42
2023-01-30T00:14:50.769Z,13.45
2023-01-30T00:19:54.113Z,13.43
2023-01-30T00:24:57.365Z,13.38
2023-01-30T00:30:03.293Z,13.41
2023-01-30T00:35:07.950Z,13.41
2023-01-30T00:40:12.006Z,13.35
2023-01-30T00:45:16.215Z,13.31
2023-01-30T00:50:21.165Z,13.34
2023-01-30T00:55:24.226Z,13.35
2023-01-30T01:00:27.499Z,13.36
2023-01-30T01:05:30.825Z,13.31
2023-01-30T01:10:35.560Z,13.23
2023-01-30T01:15:40.301Z,13.27
2023-01-30T01:20:43.672Z,13.33
2023-01-30T01:25:46.769Z,13.25
2023-01-30T01:30:50.443Z,13.20
2023-01-30T01:35:57.903Z,13.18
2023-01-30T01:41:01.170Z,13.21
2023-01-30T01:46:21.293Z,13.25
2023-01-30T01:51:33.168Z,13.23
2023-01-30T01:56:41.069Z,13.22
2023-01-30T02:01:44.400Z,13.24
2023-01-30T02:06:47.599Z,13.25
2023-01-30T02:11:58.315Z,13.28
2023-01-30T02:17:01.906Z,13.26
2023-01-30T02:22:26.820Z,13.15
2023-01-30T02:27:58.352Z,13.04
2023-01-30T02:33:17.448Z,13.06
2023-01-30T02:38:41.706Z,13.12
2023-01-30T02:43:51.002Z,13.18
2023-01-30T02:48:59.816Z,13.16
2023-01-30T02:54:05.938Z,13.11
2023-01-30T02:59:09.554Z,13.05
2023-01-30T03:04:39.262Z,13.05
2023-01-30T03:10:00.318Z,13.08
2023-01-30T03:15:08.821Z,13.18
2023-01-30T03:20:15.538Z,13.23
2023-01-30T03:25:22.488Z,13.21
2023-01-30T03:30:26.674Z,13.27
2023-01-30T03:35:39.445Z,13.25
2023-01-30T03:40:43.469Z,13.20
2023-01-30T03:45:46.964Z,13.13
2023-01-30T03:50:50.325Z,13.08
2023-01-30T03:55:54.815Z,12.96
2023-01-30T04:01:02.916Z,12.88
2023-01-30T04:06:07.258Z,12.80
2023-01-30T04:11:10.609Z,12.72
2023-01-30T04:16:26.088Z,12.64
2023-01-30T04:21:47.579Z,12.60
2023-01-30T04:26:50.699Z,12.58
2023-01-30T04:31:53.772Z,12.55
2023-01-30T04:37:01.600Z,12.53
2023-01-30T04:42:06.571Z,12.50
2023-01-30T04:47:17.997Z,12.46
2023-01-30T04:52:21.440Z,12.52
2023-01-30T04:57:24.705Z,12.52
2023-01-30T05:02:27.952Z,12.52
2023-01-30T05:07:31.008Z,12.52
2023-01-30T05:12:34.056Z,12.61
2023-01-30T05:17:37.447Z,12.76
2023-01-30T05:22:40.797Z,12.84
2023-01-30T05:27:44.062Z,12.94
2023-01-30T05:32:47.221Z,13.10
2023-01-30T05:37:51.354Z,13.30
2023-01-30T05:42:54.766Z,13.47
2023-01-30T05:48:01.252Z,13.66
2023-01-30T05:53:05.951Z,13.94
2023-01-30T05:58:10.431Z,14.23
2023-01-30T06:03:13.660Z,14.53
2023-01-30T06:08:16.927Z,14.68
2023-01-30T06:13:20.421Z,14.57
2023-01-30T06:18:23.646Z,14.69
2023-01-30T06:23:28.359Z,15.38
2023-01-30T06:28:31.378Z,16.53
2023-01-30T06:33:34.389Z,17.51
2023-01-30T06:38:37.308Z,17.59
2023-01-30T06:43:42.445Z,17.10
2023-01-30T06:48:45.615Z,16.37
2023-01-30T06:53:48.623Z,16.07
2023-01-30T06:58:51.654Z,15.83
2023-01-30T07:03:54.668Z,15.91
2023-01-30T07:08:57.718Z,15.90
2023-01-30T07:14:01.133Z,15.62
2023-01-30T07:19:04.091Z,15.51
2023-01-30T07:24:08.617Z,15.43
2023-01-30T07:29:11.845Z,15.41
2023-01-30T07:34:14.935Z,15.35
2023-01-30T07:39:18.263Z,15.29
2023-01-30T07:44:21.625Z,15.35
2023-01-30T07:49:24.845Z,15.43
2023-01-30T07:54:27.790Z,15.60
2023-01-30T07:59:30.628Z,16.02
2023-01-30T08:04:34.150Z,16.41
2023-01-30T08:09:37.101Z,16.50
2023-01-30T08:14:41.126Z,16.50
2023-01-30T08:19:44.068Z,16.37
2023-01-30T08:24:47.212Z,16.17
2023-01-30T08:29:50.521Z,16.24
2023-01-30T08:34:53.580Z,16.14
2023-01-30T08:39:56.756Z,15.97
2023-01-30T08:45:00.373Z,16.03
2023-01-30T08:50:05.144Z,16.04
2023-01-30T08:55:08.580Z,15.85
2023-01-30T09:00:12.477Z,16.02
2023-01-30T09:05:15.932Z,15.94
2023-01-30T09:10:19.525Z,15.84
2023-01-30T09:15:22.999Z,15.87
2023-01-30T09:20:27.655Z,15.85
2023-01-30T09:25:30.845Z,15.71
2023-01-30T09:30:35.252Z,15.52
2023-01-30T09:35:38.584Z,15.55
2023-01-30T09:40:50.903Z,15.91
2023-01-30T09:46:04.450Z,16.03
2023-01-30T09:51:16.471Z,15.70
2023-01-30T09:56:20.206Z,15.75
2023-01-30T10:02:11.221Z,15.90
2023-01-30T10:07:21.101Z,15.63
2023-01-30T10:12:36.172Z,15.52
2023-01-30T10:17:57.308Z,15.56
2023-01-30T10:23:39.020Z,15.71
2023-01-30T10:29:07.525Z,15.80
2023-01-30T10:34:20.008Z,15.81
2023-01-30T10:39:54.319Z,15.78
2023-01-30T10:45:10.563Z,15.79
2023-01-30T10:50:23.538Z,15.79
2023-01-30T10:55:38.034Z,15.95
2023-01-30T11:01:07.494Z,15.94
2023-01-30T11:06:17.195Z,15.83
2023-01-30T11:11:29.532Z,15.85
2023-01-30T11:16:41.079Z,16.09
2023-01-30T11:21:52.432Z,16.01
2023-01-30T11:26:57.125Z,15.91
2023-01-30T11:32:05.746Z,15.97
2023-01-30T11:37:27.671Z,15.89
2023-01-30T11:42:32.239Z,15.91
2023-01-30T11:47:35.652Z,15.85
2023-01-30T11:52:42.197Z,15.70
2023-01-30T11:57:50.370Z,15.48
2023-01-30T12:02:54.941Z,15.37
2023-01-30T12:08:13.597Z,15.30
2023-01-30T12:13:26.247Z,15.37
2023-01-30T12:18:33.260Z,15.36
2023-01-30T12:24:01.031Z,15.45
2023-01-30T12:29:19.923Z,15.46
2023-01-30T12:34:27.117Z,15.48
2023-01-30T12:39:40.935Z,15.46
2023-01-30T12:44:53.526Z,15.39
2023-01-30T12:49:56.600Z,15.44
2023-01-30T13:01:27.715Z,15.57
2023-01-30T13:07:03.055Z,15.67
2023-01-30T13:12:24.944Z,15.61
2023-01-30T13:17:42.985Z,15.55
2023-01-30T13:22:52.135Z,15.51
2023-01-30T13:28:18.251Z,15.50
2023-01-30T13:33:37.673Z,15.46
2023-01-30T13:38:58.404Z,15.51
2023-01-30T13:44:10.956Z,15.53
2023-01-30T13:49:25.863Z,15.48
2023-01-30T13:54:38.966Z,15.33
2023-01-30T14:00:17.323Z,15.15
2023-01-30T14:05:52.725Z,15.17
2023-01-30T14:10:58.005Z,15.15
2023-01-30T14:16:06.967Z,15.10
2023-01-30T14:21:25.236Z,15.04
2023-01-30T14:26:50.665Z,14.90
2023-01-30T14:31:54.347Z,14.77
2023-01-30T14:36:57.881Z,14.74
2023-01-30T14:42:22.243Z,14.72
2023-01-30T14:47:35.912Z,14.79
2023-01-30T14:52:56.573Z,14.67
2023-01-30T14:58:02.884Z,14.51
2023-01-30T15:03:20.771Z,14.38
2023-01-30T15:08:27.452Z,14.32
2023-01-30T15:13:39.636Z,14.24
2023-01-30T15:18:44.174Z,14.13
2023-01-30T15:23:47.288Z,13.99
2023-01-30T15:29:28.081Z,13.91
2023-01-30T15:34:32.689Z,13.81
2023-01-30T15:39:36.078Z,13.83
2023-01-30T15:44:50.101Z,13.88
2023-01-30T15:50:07.178Z,13.94
2023-01-30T15:55:25.079Z,13.96
2023-01-30T16:00:33.322Z,13.83
2023-01-30T16:05:38.007Z,13.67
2023-01-30T16:10:46.650Z,13.61
2023-01-30T16:16:03.874Z,13.55
2023-01-30T16:21:17.876Z,13.40
2023-01-30T16:26:23.149Z,13.29
2023-01-30T16:31:32.197Z,13.13
2023-01-30T16:36:40.398Z,12.93
2023-01-30T16:41:43.799Z,12.78
2023-01-30T16:46:56.523Z,12.69
2023-01-30T16:52:22.431Z,12.65
2023-01-30T16:57:41.795Z,12.65
2023-01-30T17:02:51.656Z,12.63
2023-01-30T17:07:56.345Z,12.59
2023-01-30T17:12:59.795Z,12.63
2023-01-30T17:18:07.165Z,12.66
2023-01-30T17:23:20.968Z,12.72
2023-01-30T17:28:24.266Z,12.77
2023-01-30T17:33:27.686Z,12.86
2023-01-30T17:38:32.034Z,12.89
2023-01-30T17:43:35.231Z,12.83
2023-01-30T17:48:38.614Z,12.79
2023-01-30T17:53:42.189Z,12.76
2023-01-30T17:58:45.484Z,12.80
2023-01-30T18:03:48.550Z,12.81
2023-01-30T18:08:51.645Z,12.81
2023-01-30T18:13:59.260Z,12.79
2023-01-30T18:19:09.686Z,12.76
2023-01-30T18:24:16.167Z,12.81
2023-01-30T18:29:24.024Z,12.78
2023-01-30T18:34:27.343Z,12.80
2023-01-30T18:39:30.564Z,12.90
2023-01-30T18:44:33.951Z,12.97
2023-01-30T18:49:37.004Z,12.99
2023-01-30T18:54:40.125Z,13.07
2023-01-30T18:59:43.103Z,13.08
2023-01-30T19:04:47.072Z,13.02
2023-01-30T19:09:50.224Z,12.95
2023-01-30T19:14:53.824Z,12.95
2023-01-30T19:19:59.879Z,12.98
2023-01-30T19:25:07.753Z,13.07
2023-01-30T19:30:12.010Z,13.21
2023-01-30T19:35:16.507Z,13.15
2023-01-30T19:40:20.099Z,12.66
2023-01-30T19:45:24.029Z,11.57
2023-01-30T19:50:29.092Z,10.97
2023-01-30T19:55:34.750Z,10.46
2023-01-30T20:00:38.755Z,10.14
2023-01-30T20:05:44.653Z,10.14
2023-01-30T20:10:47.836Z,10.14
2023-01-30T20:15:51.182Z,10.22
2023-01-30T20:20:54.290Z,10.22
2023-01-30T20:25:57.331Z,10.26
2023-01-30T20:31:01.137Z,10.30
2023-01-30T20:36:07.172Z,10.32
2023-01-30T20:41:22.363Z,10.33
2023-01-30T20:46:31.420Z,10.37
2023-01-30T20:51:35.854Z,10.41
2023-01-30T20:56:45.091Z,10.46
2023-01-30T21:01:51.067Z,10.48
2023-01-30T21:06:54.310Z,10.56
2023-01-30T21:11:57.932Z,10.53
2023-01-30T21:17:01.621Z,10.56
2023-01-30T21:22:05.459Z,10.61
2023-01-30T21:27:08.621Z,10.64
2023-01-30T21:32:12.808Z,10.65
2023-01-30T21:37:16.243Z,10.77
2023-01-30T21:42:21.299Z,10.84
2023-01-30T21:47:24.721Z,10.77
2023-01-30T21:52:28.036Z,10.91
2023-01-30T21:57:32.518Z,11.01
2023-01-30T22:02:35.729Z,11.08
2023-01-30T22:07:38.951Z,11.10
2023-01-30T22:12:42.041Z,11.12
2023-01-30T22:17:46.420Z,11.17
2023-01-30T22:22:49.432Z,11.15
2023-01-30T22:27:52.579Z,11.07
2023-01-30T22:32:55.890Z,11.05
2023-01-30T22:37:59.058Z,11.04
2023-01-30T22:43:03.330Z,11.01
2023-01-30T22:48:06.448Z,11.06
2023-01-30T22:53:09.705Z,11.13
2023-01-30T22:58:13.265Z,11.24
2023-01-30T23:03:16.638Z,11.41
2023-01-30T23:08:19.657Z,11.53
2023-01-30T23:13:23.258Z,11.62
2023-01-30T23:18:26.306Z,11.66
2023-01-30T23:23:29.333Z,11.68
2023-01-30T23:28:32.594Z,11.68
2023-01-30T23:33:35.816Z,11.70
2023-01-30T23:38:39.977Z,11.68
2023-01-30T23:43:45.157Z,11.77
2023-01-30T23:48:51.031Z,11.82
2023-01-30T23:53:56.047Z,11.87
2023-01-30T23:58:59.482Z,11.95
